Time;durP1;ratioP1;P1;durP2;ratioP2;P2;SDS_P1;SDS_P2;PMS_P1;PMS_P2;Temp;Humidity;BMP_temperature;BMP_pressure;BME280_temperature;BME280_humidity;BME280_pressure;Samples;Min_cycle;Max_cycle;Signal;HPM_P1;HPM_P2
2022/05/17 00:00:59;;;;;;;2.47;1.83;;;21.30;64.60;;;;;;4991596;28;20259;-70
2022/05/17 00:03:27;;;;;;;2.17;1.80;;;21.30;64.60;;;;;;4992760;28;20763;-70
2022/05/17 00:05:53;;;;;;;2.47;1.60;;;21.30;64.60;;;;;;4995676;28;20271;-71
2022/05/17 00:08:19;;;;;;;3.22;2.17;;;21.30;64.60;;;;;;4995620;28;20249;-71
2022/05/17 00:10:46;;;;;;;3.20;2.13;;;21.30;64.50;;;;;;4996781;28;20208;-71
2022/05/17 00:13:13;;;;;;;2.30;1.75;;;21.30;64.50;;;;;;4979448;28;20181;-71
2022/05/17 00:15:44;;;;;;;2.33;2.13;;;21.30;64.60;;;;;;4995370;28;20208;-71
2022/05/17 00:18:11;;;;;;;2.55;2.33;;;21.30;64.60;;;;;;4995956;28;20191;-71
2022/05/17 00:20:41;;;;;;;2.97;1.80;;;21.30;64.50;;;;;;4995318;28;20208;-71
2022/05/17 00:23:08;;;;;;;3.65;2.10;;;21.30;64.60;;;;;;4995401;28;20185;-71
2022/05/17 00:25:35;;;;;;;3.90;1.98;;;21.30;64.50;;;;;;4978879;28;20188;-70
2022/05/17 00:28:02;;;;;;;3.00;2.20;;;21.30;64.50;;;;;;4995185;28;20696;-70
2022/05/17 00:30:28;;;;;;;1.85;1.75;;;21.30;64.50;;;;;;4995147;28;20224;-71
2022/05/17 00:32:54;;;;;;;4.28;1.70;;;21.30;64.50;;;;;;4979283;28;20648;-71
2022/05/17 00:35:19;;;;;;;2.00;1.80;;;21.30;64.50;;;;;;4978676;28;20270;-71
2022/05/17 00:37:45;;;;;;;2.05;1.85;;;21.30;64.50;;;;;;4995409;28;20195;-70
2022/05/17 00:40:14;;;;;;;2.05;1.85;;;21.20;64.40;;;;;;4995055;28;20227;-70
2022/05/17 00:42:40;;;;;;;2.95;1.67;;;21.30;64.50;;;;;;4995227;28;20185;-71
2022/05/17 00:45:09;;;;;;;1.80;1.50;;;21.30;64.40;;;;;;4994998;28;20175;-70
2022/05/17 00:47:47;;;;;;;2.42;1.60;;;21.20;64.30;;;;;;4994944;28;20205;-70
2022/05/17 00:50:24;;;;;;;2.83;1.90;;;21.20;64.30;;;;;;4996107;28;20240;-70
2022/05/17 00:52:55;;;;;;;2.10;1.90;;;21.30;64.40;;;;;;4995079;28;20173;-71
2022/05/17 00:55:31;;;;;;;1.90;1.70;;;21.20;64.30;;;;;;4994566;28;20192;-70
2022/05/17 00:58:23;;;;;;;3.10;2.13;;;21.20;64.30;;;;;;4996046;28;20324;-70
2022/05/17 01:01:04;;;;;;;3.05;1.90;;;21.20;64.20;;;;;;4994634;28;20247;-71
2022/05/17 01:04:00;;;;;;;1.70;1.60;;;21.20;64.20;;;;;;4994718;28;20191;-71
2022/05/17 01:06:32;;;;;;;1.63;1.52;;;21.20;64.20;;;;;;4974889;28;20192;-70
2022/05/17 01:08:58;;;;;;;2.42;1.70;;;21.20;64.20;;;;;;4994566;28;20196;-70
2022/05/17 01:11:24;;;;;;;3.33;1.70;;;21.20;64.20;;;;;;4994407;28;20274;-71
2022/05/17 01:16:34;;;;;;;1.83;1.73;;;21.20;64.20;;;;;;4995051;28;20220;-70
2022/05/17 01:19:00;;;;;;;1.60;1.50;;;21.20;64.20;;;;;;4994376;28;20188;-70
2022/05/17 01:21:26;;;;;;;3.25;1.63;;;21.20;64.20;;;;;;4995515;28;20283;-70
2022/05/17 01:23:51;;;;;;;1.77;1.60;;;21.20;64.10;;;;;;4994281;28;20228;-70
2022/05/17 01:26:23;;;;;;;1.50;1.40;;;21.20;64.10;;;;;;4977850;28;20192;-70
2022/05/17 01:28:49;;;;;;;1.60;1.50;;;21.10;64.00;;;;;;4994190;28;20204;-70
2022/05/17 01:31:18;;;;;;;1.40;1.30;;;21.20;64.10;;;;;;4994247;28;20582;-71
2022/05/17 01:33:43;;;;;;;2.00;1.77;;;21.20;64.10;;;;;;4978222;28;20182;-71
2022/05/17 01:36:12;;;;;;;2.00;1.58;;;21.20;64.10;;;;;;4993916;28;20243;-70
2022/05/17 01:38:39;;;;;;;2.33;1.60;;;21.10;64.00;;;;;;4994160;28;20280;-72
2022/05/17 01:41:06;;;;;;;2.47;1.67;;;21.20;64.10;;;;;;4994047;28;20274;-70
2022/05/17 01:43:32;;;;;;;1.60;1.50;;;21.20;64.10;;;;;;4994371;28;20181;-70
2022/05/17 01:46:06;;;;;;;1.60;1.40;;;21.20;64.00;;;;;;4993664;28;20533;-70
2022/05/17 01:48:32;;;;;;;2.50;1.83;;;21.20;64.00;;;;;;4993875;28;20208;-70
2022/05/17 01:50:58;;;;;;;2.35;1.50;;;21.20;64.00;;;;;;4977487;28;20212;-70
2022/05/17 01:53:24;;;;;;;1.85;1.50;;;21.20;64.00;;;;;;4993746;28;20196;-70
2022/05/17 01:55:49;;;;;;;2.55;1.63;;;21.20;64.00;;;;;;4993317;28;20189;-70
2022/05/17 01:58:15;;;;;;;1.40;1.30;;;21.20;64.00;;;;;;4993906;28;20200;-70
2022/05/17 02:00:41;;;;;;;2.55;1.90;;;21.20;64.00;;;;;;4993948;28;20208;-70
2022/05/17 02:03:08;;;;;;;2.35;1.80;;;21.20;64.00;;;;;;4993596;28;20207;-70
2022/05/17 02:05:33;;;;;;;2.70;1.85;;;21.20;64.00;;;;;;5007717;28;20253;-70
2022/05/17 02:07:59;;;;;;;2.03;1.70;;;21.20;64.00;;;;;;4993301;28;20213;-70
2022/05/17 02:10:26;;;;;;;1.67;1.58;;;21.20;63.90;;;;;;4993386;28;20734;-71
2022/05/17 02:12:57;;;;;;;2.08;1.80;;;21.20;63.90;;;;;;4993573;28;20185;-71
2022/05/17 02:15:25;;;;;;;2.90;1.80;;;21.20;63.90;;;;;;4976971;28;20641;-70
2022/05/17 02:17:53;;;;;;;1.98;1.40;;;21.10;63.80;;;;;;4993711;28;20185;-70
2022/05/17 02:20:19;;;;;;;1.77;1.50;;;21.10;63.80;;;;;;4993258;28;20209;-71
2022/05/17 02:22:45;;;;;;;2.10;1.70;;;21.10;63.80;;;;;;4993159;28;20189;-70
2022/05/17 02:25:12;;;;;;;1.45;1.35;;;21.10;63.80;;;;;;4993078;28;20239;-71
2022/05/17 02:27:39;;;;;;;1.80;1.50;;;21.10;63.80;;;;;;4992206;28;20220;-71
2022/05/17 02:30:09;;;;;;;1.48;1.38;;;21.10;63.80;;;;;;4976776;28;20201;-70
2022/05/17 02:32:35;;;;;;;1.58;1.48;;;21.10;63.70;;;;;;4993080;28;20217;-70
2022/05/17 02:35:01;;;;;;;1.60;1.50;;;21.10;63.70;;;;;;4992880;28;20224;-70
2022/05/17 02:37:27;;;;;;;1.73;1.63;;;21.10;63.70;;;;;;4992810;28;20207;-71
2022/05/17 02:39:53;;;;;;;1.73;1.63;;;21.10;63.70;;;;;;4992229;28;20213;-71
2022/05/17 02:42:19;;;;;;;1.70;1.60;;;21.10;63.70;;;;;;4992853;28;20195;-70
2022/05/17 02:44:45;;;;;;;1.50;1.40;;;21.10;63.70;;;;;;4976564;28;20231;-71
2022/05/17 02:47:12;;;;;;;1.67;1.58;;;21.10;63.70;;;;;;4992705;28;20708;-71
2022/05/17 02:49:40;;;;;;;2.00;1.90;;;21.10;64.40;;;;;;4992854;28;20283;-71
2022/05/17 02:52:07;;;;;;;1.50;1.30;;;21.10;63.70;;;;;;5008962;28;20189;-70
2022/05/17 02:54:34;;;;;;;2.03;1.83;;;21.10;63.60;;;;;;4992443;28;20659;-70
2022/05/17 02:56:59;;;;;;;2.30;1.73;;;21.10;63.60;;;;;;4992558;28;20189;-71
2022/05/17 02:59:26;;;;;;;2.30;1.40;;;21.10;64.40;;;;;;4992807;28;20196;-70
2022/05/17 03:01:51;;;;;;;3.00;1.60;;;21.10;63.60;;;;;;4992362;28;20216;-70
2022/05/17 03:04:18;;;;;;;2.13;1.88;;;21.10;63.60;;;;;;4976134;28;20193;-70
2022/05/17 03:06:45;;;;;;;1.50;1.40;;;21.10;63.60;;;;;;4992225;28;20185;-70
2022/05/17 03:09:13;;;;;;;1.70;1.60;;;21.10;63.60;;;;;;4976368;28;20225;-70
2022/05/17 03:11:43;;;;;;;1.65;1.35;;;21.10;63.60;;;;;;4993451;28;20259;-71
2022/05/17 03:14:17;;;;;;;4.65;1.77;;;21.10;64.40;;;;;;4992305;28;20181;-70
2022/05/17 03:16:43;;;;;;;2.05;1.80;;;21.10;63.60;;;;;;4991889;28;20192;-70
2022/05/17 03:19:10;;;;;;;2.38;1.40;;;21.10;63.50;;;;;;4992236;28;20272;-70
2022/05/17 03:21:36;;;;;;;1.80;1.70;;;21.10;63.50;;;;;;4992154;28;20227;-71
2022/05/17 03:24:02;;;;;;;1.35;1.25;;;21.10;63.50;;;;;;4992039;28;20664;-70
2022/05/17 03:26:31;;;;;;;1.60;1.40;;;21.10;63.50;;;;;;4991901;28;20208;-70
2022/05/17 03:29:00;;;;;;;1.95;1.67;;;21.10;63.90;;;;;;4976054;28;20300;-70
2022/05/17 03:31:26;;;;;;;1.45;1.35;;;21.10;63.50;;;;;;4976054;28;20208;-71
2022/05/17 03:33:53;;;;;;;2.33;1.60;;;21.00;63.30;;;;;;4992077;28;20188;-70
2022/05/17 03:36:19;;;;;;;1.42;1.20;;;21.00;63.30;;;;;;4991834;28;20771;-70
2022/05/17 03:38:45;;;;;;;1.73;1.60;;;21.00;63.30;;;;;;4991884;28;20226;-71
2022/05/17 03:41:11;;;;;;;2.13;1.55;;;21.10;63.40;;;;;;4991910;28;20201;-70
2022/05/17 03:43:37;;;;;;;1.77;1.50;;;21.00;63.30;;;;;;4991976;28;20196;-70
2022/05/17 03:46:06;;;;;;;2.53;1.63;;;21.00;63.20;;;;;;4991735;28;20181;-70
2022/05/17 03:48:32;;;;;;;1.50;1.40;;;21.00;63.30;;;;;;4992005;28;20319;-70
2022/05/17 03:50:58;;;;;;;1.67;1.58;;;21.00;63.30;;;;;;4991532;28;20300;-70
2022/05/17 03:53:24;;;;;;;2.22;1.58;;;21.00;63.30;;;;;;4993013;28;20180;-70
2022/05/17 03:55:50;;;;;;;1.90;1.70;;;21.00;63.30;;;;;;4975735;28;20190;-71
2022/05/17 03:58:16;;;;;;;1.50;1.40;;;21.00;63.20;;;;;;5008140;28;20277;-70
2022/05/17 04:00:42;;;;;;;1.63;1.40;;;21.00;63.30;;;;;;4975663;28;20217;-70
2022/05/17 04:03:08;;;;;;;2.35;1.60;;;21.00;63.20;;;;;;4991927;28;20184;-71
2022/05/17 04:05:35;;;;;;;1.83;1.63;;;21.00;63.20;;;;;;4991464;28;20220;-70
2022/05/17 04:08:01;;;;;;;1.50;1.40;;;21.00;63.20;;;;;;4991764;28;20278;-70
2022/05/17 04:10:27;;;;;;;2.30;1.58;;;21.00;63.20;;;;;;5015087;23;20211;-70
2022/05/17 04:12:53;;;;;;;1.60;1.50;;;21.00;63.20;;;;;;4991424;28;20181;-70
2022/05/17 04:15:22;;;;;;;2.42;1.20;;;21.00;63.20;;;;;;4991398;28;20188;-70
2022/05/17 04:17:50;;;;;;;1.88;1.50;;;21.00;63.20;;;;;;4975662;28;20536;-71
2022/05/17 04:20:17;;;;;;;1.33;1.23;;;21.00;63.20;;;;;;4992948;28;20187;-70
2022/05/17 04:22:46;;;;;;;1.60;1.50;;;21.00;63.20;;;;;;5027632;28;20188;-70
2022/05/17 04:25:15;;;;;;;1.60;1.50;;;21.00;63.20;;;;;;4994699;28;20230;-70
2022/05/17 04:27:41;;;;;;;2.58;1.45;;;21.00;63.20;;;;;;5010834;28;20270;-70
2022/05/17 04:30:08;;;;;;;1.75;1.65;;;21.00;63.20;;;;;;5023366;28;20657;-69
2022/05/17 04:32:33;;;;;;;1.65;1.55;;;21.00;63.20;;;;;;5014332;28;20194;-70
2022/05/17 04:35:00;;;;;;;1.65;1.55;;;21.00;63.20;;;;;;5031749;28;20176;-70
2022/05/17 04:37:28;;;;;;;1.45;1.35;;;21.00;63.10;;;;;;5030619;28;20571;-69
2022/05/17 04:39:54;;;;;;;2.05;1.60;;;21.00;63.10;;;;;;5014445;28;20534;-71
2022/05/17 04:42:19;;;;;;;2.75;1.67;;;21.00;63.00;;;;;;5014209;28;20248;-70
2022/05/17 04:44:45;;;;;;;1.50;1.40;;;21.00;63.00;;;;;;5030599;28;20187;-70
2022/05/17 04:47:11;;;;;;;1.40;1.30;;;21.00;63.00;;;;;;5014391;28;20666;-70
2022/05/17 04:49:37;;;;;;;1.40;1.30;;;21.00;63.00;;;;;;5014165;28;20256;-70
2022/05/17 04:52:04;;;;;;;1.25;1.17;;;21.00;62.90;;;;;;5017567;28;20342;-70
2022/05/17 04:54:30;;;;;;;1.42;1.30;;;21.00;62.90;;;;;;5034483;28;20179;-70
2022/05/17 04:56:56;;;;;;;1.50;1.40;;;21.00;62.80;;;;;;5035260;28;20262;-70
2022/05/17 04:59:23;;;;;;;1.50;1.40;;;21.00;62.80;;;;;;5035288;28;20198;-72
2022/05/17 05:01:48;;;;;;;1.73;1.60;;;21.00;62.80;;;;;;5017692;28;20722;-71
2022/05/17 05:04:14;;;;;;;1.40;1.30;;;21.00;62.70;;;;;;5034045;28;20196;-72
2022/05/17 05:06:40;;;;;;;1.60;1.48;;;21.00;62.60;;;;;;5033663;28;20191;-71
2022/05/17 05:09:07;;;;;;;1.65;1.55;;;21.00;62.50;;;;;;5017737;28;20226;-71
2022/05/17 05:11:33;;;;;;;2.35;1.63;;;21.00;62.40;;;;;;5017440;28;20203;-72
2022/05/17 05:13:58;;;;;;;1.50;1.40;;;21.00;62.50;;;;;;5017358;28;20581;-72
2022/05/17 05:16:24;;;;;;;1.33;1.23;;;21.00;62.40;;;;;;5017123;28;20194;-72
2022/05/17 05:18:51;;;;;;;1.40;1.30;;;21.00;62.40;;;;;;5033675;28;20187;-72
2022/05/17 05:21:17;;;;;;;1.52;1.42;;;21.00;62.30;;;;;;5017328;28;20238;-72
2022/05/17 05:23:44;;;;;;;1.30;1.20;;;21.00;62.40;;;;;;5033817;28;20207;-72
2022/05/17 05:26:13;;;;;;;2.72;1.65;;;21.00;62.40;;;;;;5033422;28;20274;-72
2022/05/17 05:28:41;;;;;;;2.20;1.83;;;21.00;62.40;;;;;;5011005;28;20242;-72
2022/05/17 05:31:07;;;;;;;1.90;1.80;;;21.00;62.50;;;;;;4997698;28;20211;-72
2022/05/17 05:33:34;;;;;;;1.95;1.70;;;21.00;62.40;;;;;;5030558;28;20184;-72
2022/05/17 05:36:02;;;;;;;2.00;1.90;;;21.00;62.40;;;;;;4994432;28;20216;-72
2022/05/17 05:38:28;;;;;;;1.80;1.70;;;21.00;62.50;;;;;;4988241;28;20184;-70
2022/05/17 05:40:54;;;;;;;2.50;1.92;;;21.00;62.50;;;;;;5002268;28;20200;-71
2022/05/17 05:43:20;;;;;;;2.65;1.73;;;21.00;62.40;;;;;;5012798;28;20561;-72
2022/05/17 05:45:45;;;;;;;2.28;2.08;;;21.00;62.50;;;;;;5012290;28;20203;-72
2022/05/17 05:48:11;;;;;;;1.65;1.55;;;21.00;62.50;;;;;;4993750;28;20220;-72
2022/05/17 05:50:38;;;;;;;1.75;1.52;;;21.00;62.50;;;;;;5010146;28;20209;-72
2022/05/17 05:53:11;;;;;;;2.40;1.77;;;21.00;62.50;;;;;;4993806;28;20675;-72
2022/05/17 05:55:38;;;;;;;1.65;1.52;;;21.00;62.50;;;;;;4993954;28;20235;-72
2022/05/17 05:58:06;;;;;;;1.30;1.20;;;21.00;62.70;;;;;;4987643;28;20211;-72
2022/05/17 06:00:34;;;;;;;1.48;1.10;;;21.00;62.50;;;;;;5013510;28;20212;-72
2022/05/17 06:03:00;;;;;;;1.73;1.60;;;21.10;62.60;;;;;;4996670;28;20188;-72
2022/05/17 06:05:30;;;;;;;1.55;1.45;;;21.10;62.60;;;;;;5012963;28;20180;-72
2022/05/17 06:07:56;;;;;;;1.77;1.42;;;21.10;62.60;;;;;;5013090;28;20299;-72
2022/05/17 06:10:23;;;;;;;1.50;1.40;;;21.10;62.60;;;;;;4996579;28;20251;-72
2022/05/17 06:12:49;;;;;;;1.48;1.38;;;21.10;62.60;;;;;;4996749;28;20195;-72
2022/05/17 06:15:15;;;;;;;1.80;1.60;;;21.10;62.60;;;;;;4996478;28;20644;-72
2022/05/17 06:17:41;;;;;;;1.60;1.50;;;21.10;62.70;;;;;;5012900;28;20184;-71
2022/05/17 06:20:14;;;;;;;2.60;1.73;;;21.10;62.70;;;;;;4996778;28;20194;-71
2022/05/17 06:22:41;;;;;;;2.17;2.00;;;21.10;62.80;;;;;;4996629;28;20248;-72
2022/05/17 06:25:08;;;;;;;2.08;1.88;;;21.10;62.80;;;;;;5012596;28;20192;-72
2022/05/17 06:27:34;;;;;;;2.00;1.83;;;21.10;62.80;;;;;;5013855;28;20242;-72
2022/05/17 06:30:01;;;;;;;2.63;2.40;;;21.10;62.80;;;;;;5012731;28;20176;-72
2022/05/17 06:32:27;;;;;;;2.25;2.05;;;21.10;62.90;;;;;;5012653;28;20584;-72
2022/05/17 06:34:52;;;;;;;2.10;1.90;;;21.10;63.00;;;;;;4995920;28;20245;-72
2022/05/17 06:37:18;;;;;;;1.80;1.70;;;21.10;63.00;;;;;;4996276;28;20188;-72
2022/05/17 06:39:45;;;;;;;2.10;1.90;;;21.10;63.00;;;;;;5012504;28;20176;-72
2022/05/17 06:42:11;;;;;;;1.70;1.60;;;21.10;63.00;;;;;;4996089;28;20207;-72
2022/05/17 06:44:38;;;;;;;2.10;1.90;;;21.10;63.00;;;;;;4996278;28;20188;-71
2022/05/17 06:47:05;;;;;;;1.70;1.60;;;21.20;63.20;;;;;;4995682;28;20191;-72
2022/05/17 06:49:32;;;;;;;2.28;1.77;;;21.20;63.20;;;;;;5013545;28;20176;-72
2022/05/17 06:52:03;;;;;;;1.80;1.70;;;21.20;63.30;;;;;;4996209;28;20676;-72
2022/05/17 06:54:29;;;;;;;2.25;2.05;;;21.20;63.20;;;;;;5012588;28;20195;-72
2022/05/17 06:56:54;;;;;;;2.78;1.90;;;21.20;63.40;;;;;;4995544;28;20184;-70
2022/05/17 06:59:21;;;;;;;2.00;1.90;;;21.20;63.50;;;;;;4995644;28;20187;-72
2022/05/17 07:01:49;;;;;;;2.08;1.90;;;21.20;63.60;;;;;;5013044;28;20227;-72
2022/05/17 07:04:16;;;;;;;2.00;1.90;;;21.20;63.60;;;;;;4997379;28;20558;-71
2022/05/17 07:06:42;;;;;;;1.88;1.63;;;21.20;63.60;;;;;;5011018;28;20223;-71
2022/05/17 07:09:08;;;;;;;2.15;1.98;;;21.20;63.70;;;;;;5018921;28;20292;-72
2022/05/17 07:14:18;;;;;;;2.92;2.30;;;21.20;63.70;;;;;;4991837;28;20288;-72
2022/05/17 07:16:43;;;;;;;3.85;2.28;;;21.20;63.70;;;;;;4996390;28;20195;-72
2022/05/17 07:19:11;;;;;;;3.40;2.08;;;21.20;63.80;;;;;;4995532;28;20195;-71
2022/05/17 07:21:36;;;;;;;2.03;1.83;;;21.20;63.90;;;;;;5011956;28;20342;-71
2022/05/17 07:24:02;;;;;;;2.50;1.75;;;21.20;63.80;;;;;;5011855;28;20625;-72
2022/05/17 07:26:28;;;;;;;2.38;2.13;;;21.20;63.70;;;;;;5012898;28;20192;-71
2022/05/17 07:28:54;;;;;;;2.28;2.08;;;21.20;63.70;;;;;;4995904;28;20226;-72
2022/05/17 07:31:19;;;;;;;2.85;2.30;;;21.20;63.70;;;;;;4995389;28;20203;-72
2022/05/17 07:33:45;;;;;;;2.53;2.33;;;21.20;63.70;;;;;;5012071;28;20188;-72
2022/05/17 07:36:11;;;;;;;2.72;1.95;;;21.30;63.80;;;;;;5011722;28;20199;-72
2022/05/17 07:38:37;;;;;;;2.53;2.33;;;21.30;63.80;;;;;;5009115;28;20694;-72
2022/05/17 07:41:04;;;;;;;2.75;2.45;;;21.20;63.80;;;;;;4995026;28;20254;-71
2022/05/17 07:43:30;;;;;;;2.83;2.20;;;21.30;63.90;;;;;;5011490;28;20192;-72
2022/05/17 07:45:57;;;;;;;6.57;2.53;;;21.30;63.90;;;;;;5011708;28;20180;-72
2022/05/17 07:48:25;;;;;;;2.28;1.95;;;21.30;63.80;;;;;;5005186;28;20208;-72
2022/05/17 07:50:51;;;;;;;2.40;2.20;;;21.30;64.00;;;;;;4975398;28;20205;-72
2022/05/17 07:53:21;;;;;;;4.93;2.45;;;21.30;64.00;;;;;;4991725;28;20181;-72
2022/05/17 07:55:48;;;;;;;3.05;2.10;;;21.30;64.00;;;;;;4990991;28;20641;-72
2022/05/17 07:58:14;;;;;;;2.60;2.30;;;21.30;64.00;;;;;;4990836;28;20184;-72
2022/05/17 08:00:44;;;;;;;2.88;2.47;;;21.30;63.90;;;;;;4990970;28;20216;-72
2022/05/17 08:03:15;;;;;;;2.88;2.40;;;21.30;63.90;;;;;;4992199;28;20646;-72
2022/05/17 08:05:41;;;;;;;2.47;2.28;;;21.30;64.00;;;;;;4991033;28;20181;-72
2022/05/17 08:08:07;;;;;;;3.20;2.03;;;21.30;64.00;;;;;;4991296;28;20208;-73
2022/05/17 08:10:33;;;;;;;3.00;2.70;;;21.30;64.00;;;;;;4990931;28;20212;-72
2022/05/17 08:12:59;;;;;;;3.35;2.40;;;21.30;63.80;;;;;;4991004;28;20189;-72
2022/05/17 08:15:27;;;;;;;3.00;2.67;;;21.30;63.80;;;;;;4990909;28;20185;-72
2022/05/17 08:17:53;;;;;;;2.67;2.20;;;21.40;63.90;;;;;;4974689;28;20189;-71
2022/05/17 08:20:19;;;;;;;5.47;2.28;;;21.30;63.80;;;;;;4991180;28;20203;-71
2022/05/17 08:22:46;;;;;;;2.70;2.50;;;21.40;63.90;;;;;;4990976;28;20216;-73
2022/05/17 08:28:03;;;;;;;3.15;2.25;;;21.40;63.80;;;;;;4996011;28;20221;-72
2022/05/17 08:30:31;;;;;;;4.53;2.13;;;21.40;63.80;;;;;;4978636;28;20209;-72
2022/05/17 08:33:15;;;;;;;2.50;2.30;;;21.40;63.80;;;;;;4994910;28;20640;-72
2022/05/17 08:35:50;;;;;;;2.30;2.10;;;21.40;63.80;;;;;;4978263;28;20188;-73
2022/05/17 08:38:30;;;;;;;2.42;2.20;;;21.40;63.80;;;;;;4978559;28;20188;-72
2022/05/17 08:41:08;;;;;;;3.60;2.20;;;21.50;63.80;;;;;;4994629;28;20200;-72
2022/05/17 08:43:51;;;;;;;2.67;2.42;;;21.50;63.70;;;;;;5011171;28;20195;-72
2022/05/17 08:46:38;;;;;;;2.05;1.92;;;21.50;63.70;;;;;;4997815;28;20184;-72
2022/05/17 08:49:27;;;;;;;4.50;2.40;;;21.50;63.50;;;;;;4997563;28;20310;-72
2022/05/17 08:52:07;;;;;;;2.42;2.13;;;21.50;63.50;;;;;;4998046;28;20258;-72
2022/05/17 08:54:38;;;;;;;2.70;2.30;;;21.50;63.50;;;;;;4997575;28;20180;-72
2022/05/17 08:57:26;;;;;;;4.00;2.22;;;21.50;63.30;;;;;;5013721;28;20211;-72
2022/05/17 08:59:52;;;;;;;3.92;2.47;;;21.50;63.30;;;;;;4997474;28;20184;-73
2022/05/17 09:02:32;;;;;;;6.00;2.30;;;21.50;63.30;;;;;;5013993;28;20207;-72
2022/05/17 09:05:05;;;;;;;2.42;1.98;;;21.50;63.30;;;;;;5013701;28;20184;-71
2022/05/17 09:07:56;;;;;;;2.53;2.33;;;21.50;63.40;;;;;;5014741;28;20214;-72
2022/05/17 09:10:35;;;;;;;2.72;2.38;;;21.50;63.40;;;;;;4997022;28;20206;-72
2022/05/17 09:13:20;;;;;;;4.32;2.25;;;21.50;63.40;;;;;;5015416;28;20590;-72
2022/05/17 09:15:46;;;;;;;3.58;2.20;;;21.60;63.60;;;;;;5015258;28;20187;-71
2022/05/17 09:18:19;;;;;;;3.03;2.13;;;21.60;63.60;;;;;;4997562;28;20180;-71
2022/05/17 09:20:45;;;;;;;3.47;2.17;;;21.60;63.60;;;;;;4997510;28;20211;-72
2022/05/17 09:23:12;;;;;;;3.22;2.25;;;21.50;63.50;;;;;;5014067;28;20192;-72
2022/05/17 09:25:56;;;;;;;3.45;2.30;;;21.60;63.60;;;;;;5013575;28;20184;-72
2022/05/17 09:28:27;;;;;;;3.47;2.60;;;21.60;63.80;;;;;;5003993;28;20196;-71
2022/05/17 09:31:20;;;;;;;2.40;2.20;;;21.50;63.60;;;;;;4994172;28;20212;-71
2022/05/17 09:33:49;;;;;;;2.95;2.63;;;21.50;63.70;;;;;;4994212;28;20169;-72
2022/05/17 09:36:29;;;;;;;3.15;2.40;;;21.60;63.90;;;;;;4977258;28;20228;-72
2022/05/17 09:38:55;;;;;;;2.40;2.20;;;21.50;63.90;;;;;;4994344;28;20188;-72
2022/05/17 09:41:31;;;;;;;2.88;2.42;;;21.60;63.80;;;;;;4994146;28;20270;-72
2022/05/17 09:44:10;;;;;;;2.70;2.20;;;21.60;63.90;;;;;;4994058;28;20212;-72
2022/05/17 09:46:46;;;;;;;2.42;2.22;;;21.60;63.90;;;;;;4995078;28;20239;-72
2022/05/17 09:52:35;;;;;;;2.85;2.10;;;21.60;64.00;;;;;;4995188;28;20228;-72
2022/05/17 09:55:10;;;;;;;2.45;2.20;;;21.60;64.10;;;;;;4977581;28;20185;-72
2022/05/17 09:57:36;;;;;;;2.63;2.42;;;21.60;64.10;;;;;;4993790;28;20185;-71
2022/05/17 10:00:12;;;;;;;2.58;2.10;;;21.60;64.00;;;;;;4994060;28;20184;-72
2022/05/17 10:02:50;;;;;;;2.75;2.05;;;21.60;64.10;;;;;;4995197;28;20233;-72
2022/05/17 10:05:26;;;;;;;3.40;2.38;;;21.60;64.10;;;;;;4979956;28;20192;-72
2022/05/17 10:08:02;;;;;;;2.38;2.13;;;21.60;64.00;;;;;;4993774;28;20278;-72
2022/05/17 10:10:43;;;;;;;2.90;2.25;;;21.60;63.90;;;;;;4993982;28;20200;-76
2022/05/17 10:13:35;;;;;;;2.95;2.42;;;21.60;64.00;;;;;;5010689;28;20176;-72
2022/05/17 10:16:30;;;;;;;2.00;1.90;;;21.60;64.10;;;;;;4996452;28;20202;-72
2022/05/17 10:19:11;;;;;;;2.42;2.22;;;21.60;64.10;;;;;;4994070;28;20245;-72
2022/05/17 10:22:01;;;;;;;11.13;2.70;;;21.60;64.10;;;;;;5011999;28;20211;-72
2022/05/17 10:24:47;;;;;;;2.58;2.30;;;21.60;64.10;;;;;;4977139;28;20239;-72
2022/05/17 10:27:35;;;;;;;3.72;2.28;;;21.60;64.10;;;;;;4998201;28;20212;-72
2022/05/17 10:30:20;;;;;;;2.50;2.30;;;21.60;64.10;;;;;;4993401;28;20173;-72
2022/05/17 10:32:57;;;;;;;3.53;2.00;;;21.60;64.40;;;;;;4979752;28;20185;-72
2022/05/17 10:35:45;;;;;;;2.38;2.20;;;21.70;64.50;;;;;;4998271;28;20195;-71
2022/05/17 10:38:18;;;;;;;2.88;2.38;;;21.70;64.60;;;;;;4977023;28;20599;-72
2022/05/17 10:40:48;;;;;;;3.17;2.10;;;21.70;64.40;;;;;;4994919;28;20217;-72
2022/05/17 10:43:29;;;;;;;3.05;2.33;;;21.70;64.40;;;;;;4976817;28;20231;-72
2022/05/17 10:46:05;;;;;;;2.85;2.40;;;21.60;64.50;;;;;;4989845;28;20235;-72
2022/05/17 10:49:27;;;;;;;4.28;2.60;;;21.70;64.60;;;;;;4995034;28;20298;-72
2022/05/17 10:52:35;;;;;;;3.53;2.35;;;21.60;64.60;;;;;;5011191;28;20208;-72
2022/05/17 10:55:28;;;;;;;2.75;2.17;;;21.70;64.40;;;;;;4992111;28;20195;-71
2022/05/17 10:58:39;;;;;;;2.97;2.22;;;21.70;64.40;;;;;;4992422;28;20177;-71
2022/05/17 11:01:24;;;;;;;3.40;2.55;;;21.60;64.30;;;;;;4978330;28;20223;-72
2022/05/17 11:04:30;;;;;;;2.33;2.13;;;21.70;64.30;;;;;;5012269;28;20266;-72
2022/05/17 11:07:25;;;;;;;2.40;2.20;;;21.70;64.40;;;;;;4996115;28;20239;-72
2022/05/17 11:10:15;;;;;;;2.58;1.98;;;21.60;64.30;;;;;;5029162;28;20280;-72
2022/05/17 11:12:53;;;;;;;2.40;2.20;;;21.70;64.40;;;;;;4997572;28;20188;-72
2022/05/17 11:15:32;;;;;;;2.83;2.22;;;21.70;64.40;;;;;;5008000;28;20196;-72
2022/05/17 11:18:36;;;;;;;2.97;2.08;;;21.70;64.30;;;;;;4983929;28;20189;-73
2022/05/17 11:21:20;;;;;;;2.90;2.30;;;21.70;64.60;;;;;;4992381;28;20266;-72
2022/05/17 11:24:31;;;;;;;2.10;1.90;;;21.70;64.50;;;;;;4985433;28;20190;-72
2022/05/17 11:27:27;;;;;;;3.60;2.20;;;21.70;64.40;;;;;;4993411;28;20204;-72
2022/05/17 11:30:27;;;;;;;2.28;2.08;;;21.70;64.40;;;;;;5011878;28;20191;-72
2022/05/17 11:33:24;;;;;;;2.95;2.13;;;21.70;64.40;;;;;;5019858;28;20200;-72
2022/05/17 11:36:31;;;;;;;2.30;2.10;;;21.70;64.30;;;;;;5011484;28;20188;-72
2022/05/17 11:38:58;;;;;;;2.53;2.13;;;21.70;64.20;;;;;;4991410;28;20195;-72
2022/05/17 11:41:48;;;;;;;3.20;2.30;;;21.70;64.30;;;;;;5012039;28;20617;-72
2022/05/17 11:44:26;;;;;;;2.78;2.33;;;21.70;64.20;;;;;;5011856;28;20187;-72
2022/05/17 11:46:58;;;;;;;3.38;2.25;;;21.70;64.20;;;;;;4995001;28;20176;-72
2022/05/17 11:49:41;;;;;;;2.40;2.20;;;21.80;64.40;;;;;;5011524;28;20210;-72
2022/05/17 11:52:19;;;;;;;2.33;2.20;;;21.70;64.40;;;;;;5011413;28;20239;-72
2022/05/17 11:54:49;;;;;;;2.85;2.22;;;21.80;64.80;;;;;;5011467;28;20171;-72
2022/05/17 11:57:17;;;;;;;2.80;1.90;;;21.70;64.30;;;;;;5011359;28;20184;-72
2022/05/17 11:59:58;;;;;;;2.80;2.35;;;21.70;64.40;;;;;;4994685;28;20671;-72
2022/05/17 12:02:50;;;;;;;2.88;2.08;;;21.80;64.50;;;;;;4997983;28;20267;-72
2022/05/17 12:05:38;;;;;;;2.30;2.03;;;21.70;64.50;;;;;;4991734;28;20189;-71
2022/05/17 12:08:36;;;;;;;4.78;2.40;;;21.80;64.60;;;;;;5007940;28;20296;-72
2022/05/17 12:12:09;;;;;;;3.05;2.10;;;21.70;64.40;;;;;;4991547;28;20307;-72
2022/05/17 12:15:08;;;;;;;2.35;2.00;;;21.80;64.50;;;;;;4961522;28;20591;-72
2022/05/17 12:17:42;;;;;;;2.03;1.83;;;21.80;64.50;;;;;;4992893;28;20274;-72
2022/05/17 12:20:19;;;;;;;4.78;2.20;;;21.80;64.50;;;;;;4992658;28;20169;-72
2022/05/17 12:23:15;;;;;;;2.85;1.92;;;21.70;64.00;;;;;;4991734;28;20555;-72
2022/05/17 12:26:00;;;;;;;2.10;1.90;;;21.70;64.20;;;;;;5007645;28;20189;-72
2022/05/17 12:28:38;;;;;;;2.05;1.90;;;21.80;64.40;;;;;;4991788;28;20212;-72
2022/05/17 12:31:15;;;;;;;2.65;1.80;;;21.80;64.40;;;;;;5003221;28;20223;-72
2022/05/17 12:33:45;;;;;;;2.30;2.10;;;21.70;64.20;;;;;;5002187;28;20271;-72
2022/05/17 12:36:23;;;;;;;2.80;2.17;;;21.70;64.10;;;;;;4991525;28;20173;-72
2022/05/17 12:44:44;;;;;;;2.40;2.20;;;21.80;64.00;;;;;;4991461;28;20181;-72
2022/05/17 12:47:20;;;;;;;2.40;2.20;;;21.80;64.20;;;;;;4991425;28;20189;-72
2022/05/17 12:49:56;;;;;;;2.53;2.33;;;21.80;64.20;;;;;;4975183;28;20192;-72
2022/05/17 12:52:34;;;;;;;2.60;1.90;;;21.80;64.30;;;;;;4991239;28;20209;-72
2022/05/17 12:55:20;;;;;;;1.90;1.80;;;21.80;64.30;;;;;;4991396;28;20177;-72
2022/05/17 12:57:48;;;;;;;2.05;1.92;;;21.80;64.10;;;;;;4992393;28;20173;-72
2022/05/17 13:00:25;;;;;;;2.28;2.05;;;21.80;64.10;;;;;;4991354;28;20205;-72
2022/05/17 13:02:58;;;;;;;2.53;1.83;;;21.80;64.20;;;;;;5009474;28;20192;-72
2022/05/17 13:05:32;;;;;;;2.58;2.10;;;21.80;64.20;;;;;;4994604;28;20190;-72
2022/05/17 13:08:17;;;;;;;2.28;1.80;;;21.80;64.20;;;;;;5011942;28;20211;-72
2022/05/17 13:11:07;;;;;;;2.25;2.05;;;21.80;64.20;;;;;;5010500;28;20227;-72
2022/05/17 13:13:37;;;;;;;2.35;2.15;;;21.80;64.20;;;;;;5014467;28;20187;-72
2022/05/17 13:16:29;;;;;;;2.83;2.13;;;21.80;64.00;;;;;;5014069;28;20315;-72
2022/05/17 13:19:00;;;;;;;2.05;1.88;;;21.80;63.90;;;;;;5014011;28;20188;-72
2022/05/17 13:21:40;;;;;;;2.10;1.90;;;21.80;64.00;;;;;;5013961;28;20204;-72
2022/05/17 13:24:33;;;;;;;1.90;1.77;;;21.80;64.00;;;;;;4997578;28;20191;-72
2022/05/17 13:27:24;;;;;;;2.10;1.90;;;21.80;64.80;;;;;;4997159;28;20322;-72
2022/05/17 13:30:08;;;;;;;2.72;2.00;;;21.80;64.20;;;;;;4995709;28;20273;-71
2022/05/17 13:32:43;;;;;;;1.80;1.70;;;21.80;64.10;;;;;;5003195;28;20222;-71